This is the latest recevied weather packets stored in our database for station/object IU1OLT-7. If no packets are shown the sender has not sent any weather packets the latest 10 day(s).
| Time | Temp. | Humidity | Pressure | Rain* | Wind** | Luminosity | Snow |
|---|---|---|---|---|---|---|---|
| 1777378888 | 25° C | 30% | 1019.1 hPa | - | - | - | - |
| 1777377986 | 27.78° C | 25% | 1019 hPa | - | - | - | - |
| 1777377086 | 27.78° C | 25% | 1019 hPa | - | - | - | - |
| 1777376186 | 27.22° C | 25% | 1019.1 hPa | - | - | - | - |
| 1777375286 | 25.56° C | 25% | 1019.2 hPa | - | - | - | - |
| 1777374386 | 26.67° C | 23% | 1019.3 hPa | - | - | - | - |
| 1777373486 | 25° C | 24% | 1019.3 hPa | - | - | - | - |
| 1777372586 | 25.56° C | 22% | 1019.4 hPa | - | - | - | - |
| 1777371686 | 23.89° C | 24% | 1019.5 hPa | - | - | - | - |
| 1777370786 | 25° C | 24% | 1019.5 hPa | - | - | - | - |
| 1777369886 | 24.44° C | 25% | 1019.5 hPa | - | - | - | - |
| 1777368986 | 23.89° C | 26% | 1019.5 hPa | - | - | - | - |
| 1777368086 | 23.89° C | 25% | 1019.6 hPa | - | - | - | - |
| 1777367186 | 23.33° C | 27% | 1019.6 hPa | - | - | - | - |
| 1777366286 | 23.89° C | 27% | 1019.4 hPa | - | - | - | - |
| 1777365386 | 24.44° C | 24% | 1019.4 hPa | - | - | - | - |
| 1777364486 | 22.78° C | 28% | 1019.5 hPa | - | - | - | - |
| 1777363586 | 21.11° C | 30% | 1019.4 hPa | - | - | - | - |
| 1777362686 | 21.67° C | 29% | 1019.3 hPa | - | - | - | - |
| 1777361786 | 20° C | 32% | 1019.2 hPa | - | - | - | - |
| 1777360886 | 20° C | 32% | 1019.2 hPa | - | - | - | - |
| 1777359986 | 18.89° C | 32% | 1019.2 hPa | - | - | - | - |
| 1777359082 | 20° C | 32% | 1019.2 hPa | - | - | - | - |
| 1777358182 | 19.44° C | 32% | 1019.1 hPa | - | - | - | - |
| 1777357282 | 17.22° C | 36% | 1019.2 hPa | - | - | - | - |
* Rain since midnight (hover to see other rain measurements)
** Current wind speed in m/s (hover to see current wind gust speed)